Terminal Aerodrome Forecast
Issued by NWS

Home | Current Version | Previous Version | Graphics & Text | Print | Product List | Glossary On
Versions: 1 2 3 4 5 6 7 8 9 10 11 12 13 14 15 16 17 18 19
000
FTUS43 KMPX 171741
TAFRNH
TAF
KRNH 171741Z 1718/1818 32011G19KT P6SM SCT008 BKN016 OVC040
     FM172200 31014G21KT P6SM BKN020
     FM180400 28005KT P6SM SKC
     FM181300 28004KT P6SM BKN120=

USA.gov is the U.S. government's official web portal to all federal, state and local government web resources and services.